createdAt,value
2023-03-27T00:01:32.563Z,101943.13
2023-03-27T00:04:22.169Z,101953.47
2023-03-27T00:07:13.076Z,101944.63
2023-03-27T00:10:02.253Z,101955.50
2023-03-27T00:12:52.435Z,101951.06
2023-03-27T00:15:41.742Z,101968.81
2023-03-27T00:18:31.086Z,101974.72
2023-03-27T00:21:20.940Z,101974.41
2023-03-27T00:24:12.003Z,101970.53
2023-03-27T00:27:01.729Z,101977.03
2023-03-27T00:29:50.849Z,101978.38
2023-03-27T00:32:40.144Z,101915.88
2023-03-27T00:35:31.569Z,101984.03
2023-03-27T00:38:21.158Z,101990.03
2023-03-27T00:41:12.793Z,101984.28
2023-03-27T00:44:04.243Z,101994.81
2023-03-27T00:46:57.138Z,101995.63
2023-03-27T00:49:46.486Z,102002.94
2023-03-27T00:52:37.273Z,101995.88
2023-03-27T00:55:30.860Z,102004.53
2023-03-27T00:58:26.686Z,102002.84
2023-03-27T01:01:18.557Z,101996.13
2023-03-27T01:04:09.445Z,102009.34
2023-03-27T01:07:00.995Z,102005.97
2023-03-27T01:09:51.124Z,102007.88
2023-03-27T01:12:51.373Z,102011.59
2023-03-27T01:15:49.107Z,102011.59
2023-03-27T01:18:54.654Z,102010.84
2023-03-27T01:22:33.786Z,101995.47
2023-03-27T01:26:35.685Z,102021.63
2023-03-27T01:29:49.393Z,102022.09
2023-03-27T01:33:08.632Z,102020.94
2023-03-27T01:36:34.972Z,102020.59
2023-03-27T01:39:37.242Z,102023.53
2023-03-27T01:42:33.934Z,102020.13
2023-03-27T01:45:31.868Z,102023.00
2023-03-27T01:48:27.758Z,102025.50
2023-03-27T01:51:22.132Z,102038.94
2023-03-27T01:54:17.890Z,102038.50
2023-03-27T01:57:17.867Z,102031.69
2023-03-27T02:00:19.409Z,102033.34
2023-03-27T02:03:15.568Z,102042.44
2023-03-27T02:06:09.740Z,102035.63
2023-03-27T02:09:05.159Z,102032.53
2023-03-27T02:12:01.616Z,102033.50
2023-03-27T02:14:57.654Z,102031.63
2023-03-27T02:18:13.651Z,102011.50
2023-03-27T02:21:03.535Z,102006.09
2023-03-27T02:23:55.456Z,102031.16
2023-03-27T02:26:45.753Z,102030.97
2023-03-27T02:29:49.264Z,102027.66
2023-03-27T02:32:50.277Z,102028.13
2023-03-27T02:35:56.530Z,102019.88
2023-03-27T02:38:52.781Z,102029.66
2023-03-27T02:41:51.757Z,102034.25
2023-03-27T02:45:10.296Z,102026.50
2023-03-27T02:48:07.975Z,102036.41
2023-03-27T02:51:03.027Z,102037.34
2023-03-27T02:53:57.857Z,102028.63
2023-03-27T02:56:54.443Z,102028.41
2023-03-27T02:59:54.837Z,102036.19
2023-03-27T03:02:45.956Z,102045.84
2023-03-27T03:05:38.214Z,102033.59
2023-03-27T03:08:30.537Z,102033.59
2023-03-27T03:11:23.764Z,102034.69
2023-03-27T03:14:13.269Z,102030.19
2023-03-27T03:17:02.673Z,102035.50
2023-03-27T03:19:51.927Z,102040.34
2023-03-27T03:22:42.922Z,102037.50
2023-03-27T03:25:32.350Z,102045.06
2023-03-27T03:28:22.320Z,102041.16
2023-03-27T03:31:11.940Z,102044.34
2023-03-27T03:34:02.465Z,102046.94
2023-03-27T03:36:55.259Z,102054.25
2023-03-27T03:39:52.494Z,102047.88
2023-03-27T03:42:46.749Z,102047.88
2023-03-27T03:45:36.311Z,102043.75
2023-03-27T03:48:26.202Z,102053.19
2023-03-27T03:51:15.628Z,102053.06
2023-03-27T03:54:06.832Z,102054.63
2023-03-27T03:56:57.725Z,102051.19
2023-03-27T03:59:48.218Z,102054.34
2023-03-27T04:03:07.478Z,102056.94
2023-03-27T04:05:57.563Z,102060.72
2023-03-27T04:08:47.617Z,102063.88
2023-03-27T04:12:00.321Z,102061.06
2023-03-27T04:15:10.442Z,102063.88
2023-03-27T04:18:19.860Z,102074.13
2023-03-27T04:21:14.886Z,102078.47
2023-03-27T04:24:04.973Z,102084.13
2023-03-27T04:27:08.407Z,102082.56
2023-03-27T04:30:04.992Z,102087.59
2023-03-27T04:33:30.612Z,102096.78
2023-03-27T04:36:39.714Z,102107.94
2023-03-27T04:39:39.849Z,102086.44
2023-03-27T04:42:32.289Z,102094.31
2023-03-27T04:45:22.764Z,102079.47
2023-03-27T04:48:13.509Z,102085.28
2023-03-27T04:51:03.248Z,102091.63
2023-03-27T04:53:57.355Z,102073.84
2023-03-27T04:56:48.114Z,102075.03
2023-03-27T04:59:40.515Z,102084.44
2023-03-27T05:02:48.893Z,102075.00
2023-03-27T05:05:55.226Z,102085.94
2023-03-27T05:08:44.695Z,102084.53
2023-03-27T05:11:49.731Z,102085.59
2023-03-27T05:14:40.511Z,102080.63
2023-03-27T05:17:40.997Z,102075.22
2023-03-27T05:20:31.597Z,102086.53
2023-03-27T05:23:29.325Z,102077.53
2023-03-27T05:26:19.199Z,102089.16
2023-03-27T05:29:12.869Z,102092.00
2023-03-27T05:32:07.945Z,102095.06
2023-03-27T05:35:07.949Z,102092.50
2023-03-27T05:38:02.629Z,102081.75
2023-03-27T05:40:56.778Z,102088.00
2023-03-27T05:43:47.903Z,102095.53
2023-03-27T05:46:39.844Z,102084.56
2023-03-27T05:49:37.653Z,102095.72
2023-03-27T05:52:35.111Z,102090.78
2023-03-27T05:55:28.046Z,102085.22
2023-03-27T05:58:18.537Z,102088.91
2023-03-27T06:01:11.205Z,102085.38
2023-03-27T06:04:01.118Z,102082.75
2023-03-27T06:07:10.518Z,102079.19
2023-03-27T06:10:00.472Z,102098.16
2023-03-27T06:13:01.645Z,102095.00
2023-03-27T06:16:08.583Z,102094.16
2023-03-27T06:19:07.493Z,102103.94
2023-03-27T06:22:09.191Z,102106.41
2023-03-27T06:25:12.108Z,102105.59
2023-03-27T06:28:08.244Z,102098.06
2023-03-27T06:31:10.059Z,102105.50
2023-03-27T06:34:02.848Z,102109.63
2023-03-27T06:37:10.560Z,102111.13
2023-03-27T06:40:09.905Z,102090.59
2023-03-27T06:43:02.744Z,102120.53
2023-03-27T06:46:08.876Z,102100.63
2023-03-27T06:49:26.782Z,102125.38
2023-03-27T06:52:16.494Z,102125.75
2023-03-27T06:55:14.925Z,102121.63
2023-03-27T06:58:14.304Z,102133.91
2023-03-27T07:01:07.161Z,102128.31
2023-03-27T07:04:13.775Z,102123.56
2023-03-27T07:07:31.721Z,102124.41
2023-03-27T07:10:23.300Z,102114.13
2023-03-27T07:13:16.685Z,102127.31
2023-03-27T07:16:16.992Z,102127.09
2023-03-27T07:19:10.012Z,102124.28
2023-03-27T07:22:03.953Z,102130.13
2023-03-27T07:24:55.878Z,102120.84
2023-03-27T07:27:48.147Z,102124.25
2023-03-27T07:30:39.330Z,102124.06
2023-03-27T07:33:28.749Z,102136.91
2023-03-27T07:36:19.488Z,102128.41
2023-03-27T07:39:15.241Z,102134.91
2023-03-27T07:42:04.885Z,102127.63
2023-03-27T07:45:11.276Z,102131.53
2023-03-27T07:48:07.145Z,102114.13
2023-03-27T07:51:10.883Z,102148.03
2023-03-27T07:54:04.548Z,102139.25
2023-03-27T07:56:58.511Z,102148.75
2023-03-27T07:59:54.647Z,102147.00
2023-03-27T08:02:54.822Z,102149.63
2023-03-27T08:05:44.651Z,102154.91
2023-03-27T08:08:36.919Z,102165.63
2023-03-27T08:11:31.077Z,102164.38
2023-03-27T08:14:21.072Z,102171.25
2023-03-27T08:17:16.267Z,102167.50
2023-03-27T08:20:10.354Z,102173.63
2023-03-27T08:23:07.689Z,102173.06
2023-03-27T08:26:23.179Z,102159.56
2023-03-27T08:29:17.587Z,102169.91
2023-03-27T08:32:10.860Z,102163.56
2023-03-27T08:35:03.826Z,102164.69
2023-03-27T08:37:54.565Z,102165.69
2023-03-27T08:40:50.264Z,102161.00
2023-03-27T08:43:50.241Z,102165.91
2023-03-27T08:46:46.920Z,102157.66
2023-03-27T08:49:42.654Z,102148.44
2023-03-27T08:53:18.713Z,102149.03
2023-03-27T08:56:11.720Z,102147.09
2023-03-27T08:59:03.559Z,102155.47
2023-03-27T09:02:14.434Z,102151.31
2023-03-27T09:05:11.387Z,102151.53
2023-03-27T09:08:15.259Z,102141.38
2023-03-27T09:11:15.320Z,102144.63
2023-03-27T09:14:27.259Z,102136.16
2023-03-27T09:17:22.289Z,102144.78
2023-03-27T09:20:20.561Z,102136.47
2023-03-27T09:23:21.998Z,102125.75
2023-03-27T09:26:36.142Z,102135.34
2023-03-27T09:29:45.424Z,102144.50
2023-03-27T09:33:05.907Z,102147.41
2023-03-27T09:35:57.807Z,102156.09
2023-03-27T09:38:53.025Z,102133.78
2023-03-27T09:41:50.190Z,102148.34
2023-03-27T09:44:42.854Z,102141.94
2023-03-27T09:47:38.392Z,102144.50
2023-03-27T09:50:37.044Z,102146.00
2023-03-27T09:53:40.884Z,102137.50
2023-03-27T09:56:41.705Z,102132.69
2023-03-27T09:59:34.926Z,102137.19
2023-03-27T10:02:32.229Z,102138.97
2023-03-27T10:05:25.271Z,102132.84
2023-03-27T10:08:42.070Z,102131.31
2023-03-27T10:11:40.263Z,102126.94
2023-03-27T10:14:37.529Z,102119.00
2023-03-27T10:17:30.652Z,102133.41
2023-03-27T10:20:30.342Z,102131.41
2023-03-27T10:23:27.723Z,102125.50
2023-03-27T10:26:22.340Z,102120.28
2023-03-27T10:29:25.832Z,102134.69
2023-03-27T10:32:15.485Z,102132.34
2023-03-27T10:35:05.557Z,102120.28
2023-03-27T10:38:15.956Z,102116.50
2023-03-27T10:41:29.193Z,102111.16
2023-03-27T10:44:26.337Z,102107.75
2023-03-27T10:47:23.686Z,102096.16
2023-03-27T10:50:21.069Z,102109.38
2023-03-27T10:53:22.039Z,102114.09
2023-03-27T10:56:32.890Z,102099.25
2023-03-27T10:59:41.046Z,102096.81
2023-03-27T11:02:47.855Z,102086.31
2023-03-27T11:05:42.809Z,102082.38
2023-03-27T11:08:54.613Z,102084.44
2023-03-27T11:11:53.271Z,102081.81
2023-03-27T11:14:52.182Z,102075.38
2023-03-27T11:17:54.149Z,102072.34
2023-03-27T11:21:08.766Z,102075.31
2023-03-27T11:24:24.718Z,102076.75
2023-03-27T11:27:28.200Z,102073.31
2023-03-27T11:30:38.027Z,102073.94
2023-03-27T11:33:40.274Z,102072.88
2023-03-27T11:36:43.601Z,102078.38
2023-03-27T11:39:48.394Z,102074.81
2023-03-27T11:42:44.864Z,102074.63
2023-03-27T11:45:48.196Z,102068.63
2023-03-27T11:49:01.006Z,102073.22
2023-03-27T11:52:07.133Z,102064.41
2023-03-27T11:55:17.612Z,102066.53
2023-03-27T11:58:26.799Z,102058.63
2023-03-27T12:01:27.145Z,102073.16
2023-03-27T12:04:40.373Z,102063.34
2023-03-27T12:08:07.013Z,102068.59
2023-03-27T12:11:00.642Z,102069.88
2023-03-27T12:14:40.503Z,102059.28
2023-03-27T12:17:54.267Z,102059.38
2023-03-27T12:20:58.837Z,102057.13
2023-03-27T12:24:20.241Z,102063.97
2023-03-27T12:27:48.237Z,102060.56
2023-03-27T12:31:21.123Z,102071.06
2023-03-27T12:34:27.963Z,102050.97
2023-03-27T12:37:20.338Z,102044.72
2023-03-27T12:40:30.509Z,102042.31
2023-03-27T12:43:29.988Z,102060.53
2023-03-27T12:46:39.490Z,102042.41
2023-03-27T12:49:57.969Z,102041.47
2023-03-27T12:52:56.855Z,102037.81
2023-03-27T12:56:27.933Z,102034.41
2023-03-27T12:59:24.683Z,102039.09
2023-03-27T13:02:58.006Z,102048.41
2023-03-27T13:06:23.536Z,102034.28
2023-03-27T13:09:43.576Z,102029.53
2023-03-27T13:12:55.287Z,102026.88
2023-03-27T13:16:15.859Z,102023.63
2023-03-27T13:19:32.885Z,102022.66
2023-03-27T13:23:25.684Z,102020.97
2023-03-27T13:26:34.508Z,102024.06
2023-03-27T13:29:27.151Z,102002.69
2023-03-27T13:32:35.707Z,101999.97
2023-03-27T13:36:05.341Z,101990.66
2023-03-27T13:39:22.239Z,101995.13
2023-03-27T13:42:22.529Z,101990.84
2023-03-27T13:45:21.444Z,101996.13
2023-03-27T13:49:05.032Z,101996.53
2023-03-27T13:52:51.848Z,101997.53
2023-03-27T13:56:54.802Z,101991.88
2023-03-27T14:00:59.788Z,101983.13
2023-03-27T14:04:29.743Z,101975.28
2023-03-27T14:08:06.024Z,101966.66
2023-03-27T14:11:44.686Z,101957.00
2023-03-27T14:15:03.822Z,101959.34
2023-03-27T14:18:27.111Z,101948.53
2023-03-27T14:21:31.459Z,101946.28
2023-03-27T14:24:34.777Z,101940.63
2023-03-27T14:27:37.523Z,101943.94
2023-03-27T14:30:29.573Z,101929.91
2023-03-27T14:33:51.370Z,101928.03
2023-03-27T14:36:47.607Z,101927.94
2023-03-27T14:39:55.654Z,101924.41
2023-03-27T14:42:52.755Z,101910.94
2023-03-27T14:45:43.443Z,101914.09
2023-03-27T14:48:37.527Z,101902.69
2023-03-27T14:51:37.397Z,101899.31
2023-03-27T14:54:34.898Z,101919.38
2023-03-27T14:57:29.788Z,101917.22
2023-03-27T15:00:27.117Z,101904.50
2023-03-27T15:03:20.134Z,101906.09
2023-03-27T15:06:17.084Z,101901.69
2023-03-27T15:09:16.529Z,101896.66
2023-03-27T15:12:32.062Z,101897.81
2023-03-27T15:15:34.649Z,101889.22
2023-03-27T15:18:31.403Z,101887.38
2023-03-27T15:21:34.838Z,101888.78
2023-03-27T15:24:32.856Z,101886.72
2023-03-27T15:27:28.401Z,101886.66
2023-03-27T15:30:28.462Z,101892.28
2023-03-27T15:33:22.950Z,101884.59
2023-03-27T15:36:26.324Z,101884.28
2023-03-27T15:39:21.850Z,101876.41
2023-03-27T15:42:15.530Z,101881.34
2023-03-27T15:45:05.853Z,101861.78
2023-03-27T15:48:06.763Z,101858.56
2023-03-27T15:50:58.336Z,101864.09
2023-03-27T15:53:49.719Z,101859.84
2023-03-27T15:56:43.103Z,101865.56
2023-03-27T15:59:34.595Z,101857.00
2023-03-27T16:02:26.552Z,101862.94
2023-03-27T16:05:20.340Z,101850.03
2023-03-27T16:08:10.842Z,101854.44
2023-03-27T16:11:00.905Z,101843.19
2023-03-27T16:13:56.889Z,101835.88
2023-03-27T16:16:46.291Z,101818.56
2023-03-27T16:19:44.157Z,101814.06
2023-03-27T16:22:37.308Z,101812.41
2023-03-27T16:25:26.510Z,101818.28
2023-03-27T16:28:17.788Z,101812.91
2023-03-27T16:31:16.639Z,101812.75
2023-03-27T16:34:22.983Z,101813.84
2023-03-27T16:37:13.435Z,101800.84
2023-03-27T16:40:04.199Z,101807.09
2023-03-27T16:42:56.277Z,101805.84
2023-03-27T16:45:47.317Z,101802.56
2023-03-27T16:48:36.538Z,101808.94
2023-03-27T16:51:28.453Z,101784.38
2023-03-27T16:54:17.618Z,101794.41
2023-03-27T16:57:08.688Z,101795.31
2023-03-27T16:59:58.516Z,101790.22
2023-03-27T17:02:48.855Z,101779.63
2023-03-27T17:05:38.071Z,101786.22
2023-03-27T17:08:30.337Z,101793.94
2023-03-27T17:11:19.496Z,101788.84
2023-03-27T17:14:10.656Z,101784.94
2023-03-27T17:16:59.938Z,101781.47
2023-03-27T17:19:49.140Z,101778.06
2023-03-27T17:22:38.448Z,101784.88
2023-03-27T17:25:27.912Z,101781.63
2023-03-27T17:28:17.294Z,101787.34
2023-03-27T17:31:08.045Z,101788.47
2023-03-27T17:33:57.354Z,101784.47
2023-03-27T17:36:52.560Z,101784.31
2023-03-27T17:39:43.906Z,101783.00
2023-03-27T17:42:33.145Z,101778.06
2023-03-27T17:45:23.927Z,101776.00
2023-03-27T17:48:14.753Z,101766.44
2023-03-27T17:51:09.377Z,101761.56
2023-03-27T17:53:59.272Z,101768.22
2023-03-27T17:56:48.632Z,101756.97
2023-03-27T17:59:38.518Z,101756.97
2023-03-27T18:02:27.846Z,101760.81
2023-03-27T18:05:18.767Z,101751.38
2023-03-27T18:08:09.969Z,101746.44
2023-03-27T18:10:59.356Z,101750.06
2023-03-27T18:13:52.669Z,101744.56
2023-03-27T18:16:42.131Z,101745.00
2023-03-27T18:19:31.389Z,101739.78
2023-03-27T18:22:22.107Z,101736.56
2023-03-27T18:25:12.385Z,101743.50
2023-03-27T18:28:01.611Z,101732.16
2023-03-27T18:31:02.080Z,101724.38
2023-03-27T18:33:51.379Z,101735.84
2023-03-27T18:36:40.631Z,101720.38
2023-03-27T18:39:31.540Z,101722.81
2023-03-27T18:42:20.936Z,101727.63
2023-03-27T18:45:12.695Z,101722.78
2023-03-27T18:48:02.264Z,101722.88
2023-03-27T18:50:56.398Z,101707.91
2023-03-27T18:53:45.766Z,101721.88
2023-03-27T18:56:37.876Z,101715.59
2023-03-27T18:59:27.333Z,101716.41
2023-03-27T19:02:17.266Z,101700.34
2023-03-27T19:05:08.610Z,101714.06
2023-03-27T19:07:59.458Z,101703.38
2023-03-27T19:10:48.707Z,101698.72
2023-03-27T19:13:46.272Z,101692.25
2023-03-27T19:16:58.667Z,101691.19
2023-03-27T19:19:57.131Z,101674.78
2023-03-27T19:23:11.582Z,101664.16
2023-03-27T19:26:09.520Z,101653.47
2023-03-27T19:29:04.497Z,101658.38
2023-03-27T19:31:54.527Z,101649.41
2023-03-27T19:34:44.074Z,101656.75
2023-03-27T19:37:33.447Z,101651.81
2023-03-27T19:40:22.917Z,101642.25
2023-03-27T19:43:12.143Z,101657.56
2023-03-27T19:46:14.999Z,101641.72
2023-03-27T19:49:05.425Z,101652.84
2023-03-27T19:52:20.908Z,101630.84
2023-03-27T19:55:11.267Z,101628.84
2023-03-27T19:58:00.479Z,101635.16
2023-03-27T20:00:52.408Z,101638.69
2023-03-27T20:03:43.573Z,101627.75
2023-03-27T20:06:34.048Z,101629.69
2023-03-27T20:09:23.295Z,101607.00
2023-03-27T20:12:13.497Z,101601.84
2023-03-27T20:15:11.655Z,101600.50
2023-03-27T20:18:04.910Z,101598.25
2023-03-27T20:20:56.297Z,101602.63
2023-03-27T20:23:45.781Z,101597.66
2023-03-27T20:26:48.289Z,101587.13
2023-03-27T20:29:42.360Z,101572.09
2023-03-27T20:32:32.226Z,101584.09
2023-03-27T20:35:24.757Z,101575.31
2023-03-27T20:38:16.079Z,101583.78
2023-03-27T20:41:07.914Z,101573.69
2023-03-27T20:43:58.849Z,101563.81
2023-03-27T20:46:51.746Z,101565.78
2023-03-27T20:49:43.573Z,101557.28
2023-03-27T20:52:32.929Z,101555.66
2023-03-27T20:55:33.721Z,101561.13
2023-03-27T20:58:26.017Z,101549.88
2023-03-27T21:01:19.492Z,101546.03
2023-03-27T21:04:09.963Z,101551.75
2023-03-27T21:07:00.227Z,101535.91
2023-03-27T21:09:49.455Z,101543.56
2023-03-27T21:12:40.891Z,101537.00
2023-03-27T21:15:30.498Z,101530.16
2023-03-27T21:18:20.065Z,101533.66
2023-03-27T21:21:09.498Z,101515.69
2023-03-27T21:24:01.265Z,101525.41
2023-03-27T21:26:50.560Z,101518.88
2023-03-27T21:29:41.768Z,101513.38
2023-03-27T21:32:30.985Z,101499.25
2023-03-27T21:35:20.295Z,101500.31
2023-03-27T21:38:09.758Z,101494.72
2023-03-27T21:40:59.036Z,101493.09
2023-03-27T21:43:48.311Z,101487.88
2023-03-27T21:46:38.980Z,101483.78
2023-03-27T21:49:28.585Z,101479.41
2023-03-27T21:52:17.769Z,101491.97
2023-03-27T21:55:10.744Z,101473.94
2023-03-27T21:57:59.927Z,101465.13
2023-03-27T22:00:49.537Z,101455.66
2023-03-27T22:03:40.141Z,101458.84
2023-03-27T22:06:29.924Z,101463.69
2023-03-27T22:09:19.235Z,101449.34
2023-03-27T22:12:08.955Z,101438.84
2023-03-27T22:14:58.243Z,101443.13
2023-03-27T22:17:49.560Z,101444.84
2023-03-27T22:20:41.025Z,101432.78
2023-03-27T22:23:30.390Z,101431.97
2023-03-27T22:26:20.625Z,101422.16
2023-03-27T22:29:13.286Z,101416.69
2023-03-27T22:32:02.561Z,101418.81
2023-03-27T22:34:52.139Z,101406.19
2023-03-27T22:37:42.898Z,101395.31
2023-03-27T22:40:32.147Z,101398.00
2023-03-27T22:43:22.919Z,101395.25
2023-03-27T22:46:15.302Z,101393.69
2023-03-27T22:49:04.802Z,101371.34
2023-03-27T22:51:57.483Z,101388.44
2023-03-27T22:54:50.327Z,101368.78
2023-03-27T22:57:39.679Z,101369.59
2023-03-27T23:00:28.962Z,101356.22
2023-03-27T23:03:22.801Z,101346.28
2023-03-27T23:06:19.156Z,101346.28
2023-03-27T23:09:10.138Z,101337.41
2023-03-27T23:12:03.936Z,101324.34
2023-03-27T23:14:53.391Z,101323.69
2023-03-27T23:17:42.850Z,101313.63
2023-03-27T23:20:34.736Z,101315.16
2023-03-27T23:23:26.875Z,101311.63
2023-03-27T23:26:18.310Z,101306.25
2023-03-27T23:29:11.816Z,101299.22
2023-03-27T23:32:04.204Z,101311.41
2023-03-27T23:34:53.429Z,101303.22
2023-03-27T23:37:42.765Z,101295.94
2023-03-27T23:40:34.771Z,101300.00
2023-03-27T23:43:24.787Z,101290.84
2023-03-27T23:46:15.704Z,101266.31
2023-03-27T23:49:05.063Z,101288.56
2023-03-27T23:51:54.607Z,101287.06
2023-03-27T23:54:43.833Z,101285.19
2023-03-27T23:57:33.071Z,101294.22
